ACA115 CYYZ-CYVR
Flight info
| Callsign | ACA115 |
|---|---|
| Flight time | N/A |
| Altitude | 34000 |
| Route | URSAL4 KASED DCT VACAY DCT RIMBE DCT KP15G DCT CENVI DCT KP21A DCT PETBO/N0447F360 DCT MUSRA DCT BEVEL DCT AMENA DCT FIRNI DCT YXC DCT BOOTH CANUC6 |
| Aircraft | A321/M-SDE3FGHIRWY/LB1 |
Departure
| Time | N/A |
|---|---|
| Airport | Toronto Pearson International Airport (CYYZ) |
Arrival
| Time | 2026-05-03 22:18 |
|---|---|
| Airport | Vancouver International Airport (CYVR) |
| Time | Latitude | Longitude | Altitude | Speed | Heading |
|---|---|---|---|---|---|
| 2026-05-03 20:15 | 48.90848 | -103.16645 | 33769 ft | 398 kts | 285° |
| 2026-05-03 20:15 | 48.91784 | -103.24925 | 33767 ft | 398 kts | 285° |
| 2026-05-03 20:16 | 48.92719 | -103.33226 | 33751 ft | 398 kts | 285° |
| 2026-05-03 20:16 | 48.93652 | -103.41538 | 33749 ft | 399 kts | 285° |
| 2026-05-03 20:17 | 48.94579 | -103.49869 | 33759 ft | 399 kts | 285° |
| 2026-05-03 20:17 | 48.95505 | -103.58219 | 33792 ft | 398 kts | 285° |
| 2026-05-03 20:18 | 48.96420 | -103.66524 | 33797 ft | 396 kts | 285° |
| 2026-05-03 20:18 | 48.97320 | -103.74741 | 33749 ft | 395 kts | 285° |
| 2026-05-03 20:19 | 48.98227 | -103.83025 | 33749 ft | 395 kts | 285° |
| 2026-05-03 20:19 | 48.99116 | -103.91249 | 33758 ft | 395 kts | 285° |
| 2026-05-03 20:20 | 48.99995 | -103.99527 | 33759 ft | 396 kts | 284° |
| 2026-05-03 20:20 | 49.00770 | -104.07914 | 33767 ft | 397 kts | 283° |
| 2026-05-03 20:21 | 49.01436 | -104.16271 | 33765 ft | 397 kts | 283° |
| 2026-05-03 20:21 | 49.02102 | -104.24630 | 33735 ft | 397 kts | 283° |
| 2026-05-03 20:22 | 49.02776 | -104.32954 | 33741 ft | 397 kts | 283° |
| 2026-05-03 20:22 | 49.03455 | -104.41330 | 33750 ft | 397 kts | 283° |
| 2026-05-03 20:23 | 49.04132 | -104.49735 | 33746 ft | 397 kts | 283° |
| 2026-05-03 20:23 | 49.04805 | -104.58115 | 33774 ft | 397 kts | 283° |
| 2026-05-03 20:24 | 49.05463 | -104.66511 | 33786 ft | 396 kts | 283° |
| 2026-05-03 20:24 | 49.06112 | -104.74823 | 33748 ft | 395 kts | 282° |
| 2026-05-03 20:25 | 49.06754 | -104.83181 | 33768 ft | 395 kts | 282° |
| 2026-05-03 20:25 | 49.07387 | -104.91498 | 33767 ft | 396 kts | 282° |
| 2026-05-03 20:26 | 49.08023 | -104.99841 | 33779 ft | 396 kts | 282° |
| 2026-05-03 20:26 | 49.08657 | -105.08240 | 33777 ft | 396 kts | 282° |
| 2026-05-03 20:27 | 49.09281 | -105.16600 | 33753 ft | 396 kts | 282° |
| 2026-05-03 20:27 | 49.09890 | -105.25019 | 33758 ft | 397 kts | 282° |
| 2026-05-03 20:28 | 49.10489 | -105.33412 | 33765 ft | 398 kts | 282° |
| 2026-05-03 20:28 | 49.11093 | -105.41759 | 33779 ft | 398 kts | 282° |
| 2026-05-03 20:29 | 49.11692 | -105.50211 | 33782 ft | 398 kts | 282° |
| 2026-05-03 20:29 | 49.12290 | -105.58680 | 33792 ft | 398 kts | 282° |
| 2026-05-03 20:30 | 49.12884 | -105.67068 | 33771 ft | 398 kts | 282° |
| 2026-05-03 20:30 | 49.13370 | -105.74108 | 33785 ft | 398 kts | 282° |
| 2026-05-03 20:31 | 49.13947 | -105.82530 | 33786 ft | 398 kts | 282° |
| 2026-05-03 20:31 | 49.14514 | -105.90931 | 33786 ft | 398 kts | 282° |
| 2026-05-03 20:32 | 49.15078 | -105.99340 | 33794 ft | 398 kts | 282° |
| 2026-05-03 20:32 | 49.15638 | -106.07761 | 33797 ft | 398 kts | 282° |
| 2026-05-03 20:33 | 49.16191 | -106.16226 | 33768 ft | 398 kts | 281° |
| 2026-05-03 20:33 | 49.16741 | -106.24667 | 33777 ft | 399 kts | 281° |
| 2026-05-03 20:34 | 49.17282 | -106.33101 | 33780 ft | 399 kts | 281° |
| 2026-05-03 20:34 | 49.17821 | -106.41576 | 33784 ft | 400 kts | 281° |
| 2026-05-03 20:35 | 49.18355 | -106.50046 | 33789 ft | 400 kts | 281° |
| 2026-05-03 20:35 | 49.18878 | -106.58508 | 33793 ft | 400 kts | 281° |
| 2026-05-03 20:36 | 49.19390 | -106.67027 | 33778 ft | 400 kts | 281° |
| 2026-05-03 20:36 | 49.19900 | -106.75503 | 33792 ft | 400 kts | 281° |
| 2026-05-03 20:37 | 49.20407 | -106.83967 | 33803 ft | 400 kts | 281° |
| 2026-05-03 20:37 | 49.20902 | -106.92423 | 33809 ft | 398 kts | 282° |
| 2026-05-03 20:38 | 49.21682 | -107.00791 | 33808 ft | 395 kts | 285° |
| 2026-05-03 20:38 | 49.22666 | -107.09020 | 33775 ft | 394 kts | 286° |
| 2026-05-03 20:39 | 49.23634 | -107.17358 | 33777 ft | 395 kts | 285° |
| 2026-05-03 20:39 | 49.24530 | -107.25791 | 33780 ft | 396 kts | 284° |
| 2026-05-03 20:40 | 49.25383 | -107.34059 | 33792 ft | 396 kts | 284° |
| 2026-05-03 20:40 | 49.26237 | -107.42357 | 33789 ft | 397 kts | 284° |
| 2026-05-03 20:41 | 49.27098 | -107.50704 | 33802 ft | 397 kts | 285° |
| 2026-05-03 20:41 | 49.27964 | -107.59053 | 33801 ft | 396 kts | 285° |
| 2026-05-03 20:42 | 49.28820 | -107.67396 | 33818 ft | 396 kts | 284° |
| 2026-05-03 20:42 | 49.29662 | -107.75784 | 33829 ft | 395 kts | 284° |
| 2026-05-03 20:43 | 49.30493 | -107.84107 | 33838 ft | 395 kts | 284° |
| 2026-05-03 20:43 | 49.31322 | -107.92412 | 33829 ft | 394 kts | 284° |
| 2026-05-03 20:44 | 49.32151 | -108.00761 | 33833 ft | 394 kts | 284° |
| 2026-05-03 20:44 | 49.32964 | -108.09056 | 33792 ft | 394 kts | 284° |
| 2026-05-03 20:45 | 49.33775 | -108.17392 | 33800 ft | 395 kts | 284° |
| 2026-05-03 20:45 | 49.34583 | -108.25736 | 33804 ft | 395 kts | 284° |
| 2026-05-03 20:46 | 49.35390 | -108.34132 | 33828 ft | 396 kts | 284° |
| 2026-05-03 20:46 | 49.36191 | -108.42495 | 33828 ft | 396 kts | 284° |
| 2026-05-03 20:47 | 49.36981 | -108.50860 | 33834 ft | 396 kts | 284° |
| 2026-05-03 20:47 | 49.37764 | -108.59298 | 33825 ft | 396 kts | 284° |
| 2026-05-03 20:48 | 49.38535 | -108.67651 | 33832 ft | 395 kts | 284° |
| 2026-05-03 20:48 | 49.39317 | -108.76015 | 33841 ft | 395 kts | 284° |
| 2026-05-03 20:49 | 49.40098 | -108.84437 | 33845 ft | 395 kts | 283° |
| 2026-05-03 20:49 | 49.40856 | -108.92794 | 33854 ft | 395 kts | 283° |
| 2026-05-03 20:50 | 49.41490 | -108.99794 | 33855 ft | 395 kts | 283° |
| 2026-05-03 20:50 | 49.42242 | -109.08163 | 33855 ft | 395 kts | 283° |
| 2026-05-03 20:51 | 49.42976 | -109.16551 | 33827 ft | 397 kts | 283° |
| 2026-05-03 20:51 | 49.43712 | -109.25029 | 33833 ft | 398 kts | 283° |
| 2026-05-03 20:52 | 49.44457 | -109.33527 | 33840 ft | 399 kts | 283° |
| 2026-05-03 20:52 | 49.45193 | -109.42000 | 33844 ft | 400 kts | 283° |
| 2026-05-03 20:53 | 49.45925 | -109.50495 | 33852 ft | 400 kts | 283° |
| 2026-05-03 20:53 | 49.46648 | -109.59041 | 33824 ft | 400 kts | 283° |
| 2026-05-03 20:54 | 49.47359 | -109.67610 | 33837 ft | 401 kts | 283° |
| 2026-05-03 20:54 | 49.48437 | -109.80609 | 33900 ft | 398 kts | 283° |
| 2026-05-03 20:55 | 49.49105 | -109.88767 | 33889 ft | 396 kts | 283° |
| 2026-05-03 20:55 | 49.49792 | -109.97191 | 33887 ft | 395 kts | 283° |
| 2026-05-03 20:56 | 49.50313 | -110.05608 | 33888 ft | 396 kts | 279° |
| 2026-05-03 20:56 | 49.50534 | -110.14164 | 33858 ft | 397 kts | 277° |
| 2026-05-03 20:57 | 49.50712 | -110.22669 | 33859 ft | 398 kts | 278° |
| 2026-05-03 20:57 | 49.50930 | -110.31192 | 33863 ft | 398 kts | 278° |
| 2026-05-03 20:58 | 49.51170 | -110.39718 | 33877 ft | 399 kts | 278° |
| 2026-05-03 20:58 | 49.51413 | -110.48246 | 33898 ft | 398 kts | 278° |
| 2026-05-03 20:59 | 49.51650 | -110.56781 | 33890 ft | 398 kts | 278° |
| 2026-05-03 20:59 | 49.51866 | -110.65397 | 33858 ft | 398 kts | 278° |
| 2026-05-03 21:00 | 49.52038 | -110.72391 | 33875 ft | 399 kts | 278° |
| 2026-05-03 21:00 | 49.52272 | -110.82396 | 33870 ft | 400 kts | 278° |
| 2026-05-03 21:01 | 49.52463 | -110.90926 | 33890 ft | 400 kts | 278° |
| 2026-05-03 21:01 | 49.52652 | -110.99549 | 33872 ft | 400 kts | 277° |
| 2026-05-03 21:02 | 49.52838 | -111.08143 | 33870 ft | 400 kts | 277° |
| 2026-05-03 21:02 | 49.53024 | -111.16912 | 33881 ft | 401 kts | 277° |
| 2026-05-03 21:03 | 49.53204 | -111.25380 | 33886 ft | 402 kts | 277° |
| 2026-05-03 21:03 | 49.53380 | -111.34047 | 33895 ft | 402 kts | 277° |
| 2026-05-03 21:04 | 49.53540 | -111.42655 | 33899 ft | 403 kts | 277° |
| 2026-05-03 21:04 | 49.53695 | -111.51333 | 33903 ft | 402 kts | 277° |
| 2026-05-03 21:05 | 49.53854 | -111.59957 | 33884 ft | 402 kts | 277° |
| 2026-05-03 21:05 | 49.54002 | -111.68454 | 33897 ft | 403 kts | 277° |
| 2026-05-03 21:06 | 49.54121 | -111.75886 | 33928 ft | 409 kts | 277° |
| 2026-05-03 21:06 | 49.54253 | -111.84739 | 33929 ft | 415 kts | 277° |
| 2026-05-03 21:07 | 49.54403 | -111.93646 | 33928 ft | 415 kts | 277° |
| 2026-05-03 21:07 | 49.54651 | -112.02583 | 33926 ft | 415 kts | 278° |
| 2026-05-03 21:08 | 49.54911 | -112.11540 | 33938 ft | 417 kts | 277° |
| 2026-05-03 21:08 | 49.55148 | -112.20515 | 33929 ft | 417 kts | 277° |
| 2026-05-03 21:09 | 49.55367 | -112.29503 | 33932 ft | 417 kts | 277° |
| 2026-05-03 21:09 | 49.55591 | -112.38418 | 33934 ft | 416 kts | 277° |
| 2026-05-03 21:10 | 49.55796 | -112.47378 | 33933 ft | 416 kts | 277° |
| 2026-05-03 21:10 | 49.55989 | -112.56363 | 33918 ft | 417 kts | 277° |
| 2026-05-03 21:11 | 49.56172 | -112.65346 | 33928 ft | 416 kts | 277° |
| 2026-05-03 21:11 | 49.56357 | -112.74285 | 33927 ft | 415 kts | 277° |
| 2026-05-03 21:12 | 49.56524 | -112.83203 | 33918 ft | 415 kts | 277° |
| 2026-05-03 21:12 | 49.56682 | -112.92090 | 33915 ft | 415 kts | 277° |
| 2026-05-03 21:13 | 49.56837 | -113.01038 | 33919 ft | 415 kts | 277° |
| 2026-05-03 21:13 | 49.56995 | -113.09934 | 33887 ft | 416 kts | 277° |
| 2026-05-03 21:14 | 49.57151 | -113.18902 | 33897 ft | 417 kts | 276° |
| 2026-05-03 21:14 | 49.57291 | -113.27854 | 33903 ft | 417 kts | 276° |
| 2026-05-03 21:15 | 49.57423 | -113.36857 | 33913 ft | 418 kts | 276° |
| 2026-05-03 21:15 | 49.57551 | -113.45818 | 33914 ft | 418 kts | 276° |
| 2026-05-03 21:16 | 49.57673 | -113.54841 | 33898 ft | 418 kts | 276° |
| 2026-05-03 21:16 | 49.57790 | -113.63830 | 33901 ft | 418 kts | 276° |
| 2026-05-03 21:17 | 49.57880 | -113.71344 | 33912 ft | 419 kts | 276° |
| 2026-05-03 21:17 | 49.57977 | -113.80381 | 33926 ft | 418 kts | 276° |
| 2026-05-03 21:18 | 49.58070 | -113.89340 | 33933 ft | 418 kts | 276° |
| 2026-05-03 21:18 | 49.58157 | -113.98363 | 33942 ft | 418 kts | 276° |
| 2026-05-03 21:19 | 49.58240 | -114.07461 | 33907 ft | 418 kts | 275° |
| 2026-05-03 21:19 | 49.58315 | -114.16453 | 33912 ft | 419 kts | 275° |
| 2026-05-03 21:20 | 49.58383 | -114.25447 | 33917 ft | 419 kts | 275° |
| 2026-05-03 21:20 | 49.58442 | -114.34427 | 33931 ft | 419 kts | 275° |
| 2026-05-03 21:21 | 49.58500 | -114.43485 | 33958 ft | 420 kts | 275° |
| 2026-05-03 21:21 | 49.58548 | -114.52579 | 33930 ft | 420 kts | 274° |
| 2026-05-03 21:22 | 49.58577 | -114.61586 | 33950 ft | 421 kts | 274° |
| 2026-05-03 21:22 | 49.58606 | -114.70623 | 33956 ft | 422 kts | 274° |
| 2026-05-03 21:23 | 49.58639 | -114.79735 | 33956 ft | 422 kts | 274° |
| 2026-05-03 21:23 | 49.58657 | -114.88782 | 33960 ft | 422 kts | 274° |
| 2026-05-03 21:24 | 49.58665 | -114.97895 | 33969 ft | 423 kts | 274° |
| 2026-05-03 21:24 | 49.58667 | -115.06961 | 33957 ft | 422 kts | 274° |
| 2026-05-03 21:25 | 49.58648 | -115.16022 | 33960 ft | 423 kts | 273° |
| 2026-05-03 21:25 | 49.58412 | -115.25233 | 33954 ft | 424 kts | 271° |
| 2026-05-03 21:26 | 49.58058 | -115.34329 | 33960 ft | 425 kts | 270° |
| 2026-05-03 21:26 | 49.57723 | -115.43497 | 33965 ft | 425 kts | 271° |
| 2026-05-03 21:27 | 49.57426 | -115.52596 | 33941 ft | 425 kts | 271° |
| 2026-05-03 21:27 | 49.57128 | -115.61720 | 33947 ft | 426 kts | 271° |
| 2026-05-03 21:28 | 49.56813 | -115.70850 | 33946 ft | 427 kts | 271° |
| 2026-05-03 21:28 | 49.56491 | -115.80045 | 33960 ft | 428 kts | 270° |
| 2026-05-03 21:29 | 49.56152 | -115.89284 | 33961 ft | 428 kts | 270° |
| 2026-05-03 21:29 | 49.55818 | -115.98427 | 33958 ft | 427 kts | 270° |
| 2026-05-03 21:30 | 49.55471 | -116.07567 | 33957 ft | 427 kts | 271° |
| 2026-05-03 21:30 | 49.55589 | -116.16677 | 33966 ft | 425 kts | 276° |
| 2026-05-03 21:31 | 49.55767 | -116.25803 | 33993 ft | 426 kts | 275° |
| 2026-05-03 21:31 | 49.55908 | -116.33450 | 33995 ft | 426 kts | 275° |
| 2026-05-03 21:32 | 49.56070 | -116.42566 | 33979 ft | 426 kts | 275° |
| 2026-05-03 21:32 | 49.56220 | -116.51694 | 33971 ft | 427 kts | 275° |
| 2026-05-03 21:33 | 49.56361 | -116.60860 | 33963 ft | 428 kts | 275° |
| 2026-05-03 21:33 | 49.56506 | -116.70096 | 33973 ft | 428 kts | 275° |
| 2026-05-03 21:34 | 49.56645 | -116.79277 | 33959 ft | 429 kts | 275° |
| 2026-05-03 21:34 | 49.56772 | -116.88538 | 33959 ft | 429 kts | 275° |
| 2026-05-03 21:35 | 49.56891 | -116.97747 | 33969 ft | 430 kts | 275° |
| 2026-05-03 21:35 | 49.57003 | -117.07035 | 33944 ft | 430 kts | 275° |
| 2026-05-03 21:36 | 49.57110 | -117.16272 | 33946 ft | 431 kts | 275° |
| 2026-05-03 21:36 | 49.57209 | -117.25521 | 33949 ft | 431 kts | 275° |
| 2026-05-03 21:37 | 49.57301 | -117.34891 | 33952 ft | 432 kts | 275° |
| 2026-05-03 21:37 | 49.57388 | -117.44144 | 33964 ft | 432 kts | 275° |
| 2026-05-03 21:38 | 49.57465 | -117.53487 | 33965 ft | 433 kts | 275° |
| 2026-05-03 21:38 | 49.57535 | -117.62759 | 33969 ft | 433 kts | 275° |
| 2026-05-03 21:39 | 49.57592 | -117.72108 | 33970 ft | 432 kts | 275° |
| 2026-05-03 21:39 | 49.57643 | -117.81428 | 33976 ft | 433 kts | 275° |
| 2026-05-03 21:40 | 49.57694 | -117.90699 | 33991 ft | 432 kts | 275° |
| 2026-05-03 21:40 | 49.57734 | -117.99958 | 33988 ft | 431 kts | 275° |
| 2026-05-03 21:41 | 49.57765 | -118.09270 | 33969 ft | 432 kts | 275° |
| 2026-05-03 21:41 | 49.57786 | -118.18532 | 33970 ft | 432 kts | 275° |
| 2026-05-03 21:42 | 49.57824 | -118.27805 | 33968 ft | 433 kts | 275° |
| 2026-05-03 21:42 | 49.57850 | -118.37074 | 33968 ft | 433 kts | 275° |
| 2026-05-03 21:43 | 49.57841 | -118.46369 | 33977 ft | 433 kts | 274° |
| 2026-05-03 21:43 | 49.57817 | -118.55644 | 33955 ft | 433 kts | 274° |
| 2026-05-03 21:44 | 49.57794 | -118.64946 | 33963 ft | 435 kts | 274° |
| 2026-05-03 21:44 | 49.57773 | -118.74337 | 33965 ft | 436 kts | 274° |
| 2026-05-03 21:45 | 49.57750 | -118.83678 | 33968 ft | 436 kts | 275° |
| 2026-05-03 21:45 | 49.57718 | -118.93110 | 33974 ft | 436 kts | 275° |
| 2026-05-03 21:46 | 49.57686 | -119.00880 | 33977 ft | 436 kts | 275° |
| 2026-05-03 21:46 | 49.57631 | -119.10289 | 33956 ft | 437 kts | 275° |
| 2026-05-03 21:47 | 49.57572 | -119.19694 | 33959 ft | 438 kts | 275° |
| 2026-05-03 21:47 | 49.57510 | -119.29106 | 33954 ft | 439 kts | 275° |
| 2026-05-03 21:48 | 49.57445 | -119.38520 | 33955 ft | 440 kts | 275° |
| 2026-05-03 21:48 | 49.57367 | -119.48097 | 33959 ft | 440 kts | 275° |
| 2026-05-03 21:49 | 49.57296 | -119.57545 | 33834 ft | 446 kts | 275° |
| 2026-05-03 21:49 | 49.57262 | -119.62351 | 33556 ft | 451 kts | 274° |
| 2026-05-03 21:49 | 49.57215 | -119.67196 | 33291 ft | 451 kts | 274° |
| 2026-05-03 21:50 | 49.57154 | -119.72162 | 33009 ft | 449 kts | 274° |
| 2026-05-03 21:50 | 49.57093 | -119.76965 | 32744 ft | 447 kts | 274° |
| 2026-05-03 21:50 | 49.57036 | -119.81741 | 32482 ft | 445 kts | 274° |
| 2026-05-03 21:50 | 49.56980 | -119.86556 | 32219 ft | 442 kts | 273° |
| 2026-05-03 21:51 | 49.56920 | -119.91334 | 31967 ft | 440 kts | 273° |
| 2026-05-03 21:51 | 49.56859 | -119.96076 | 31710 ft | 438 kts | 273° |
| 2026-05-03 21:51 | 49.56797 | -120.00733 | 31471 ft | 436 kts | 273° |
| 2026-05-03 21:51 | 49.56733 | -120.05399 | 31205 ft | 433 kts | 273° |
| 2026-05-03 21:52 | 49.56664 | -120.10163 | 30951 ft | 433 kts | 272° |
| 2026-05-03 21:52 | 49.56594 | -120.14801 | 30710 ft | 431 kts | 272° |
| 2026-05-03 21:52 | 49.56523 | -120.19417 | 30463 ft | 429 kts | 272° |
| 2026-05-03 21:52 | 49.56455 | -120.24007 | 30213 ft | 427 kts | 272° |
| 2026-05-03 21:53 | 49.56384 | -120.28567 | 29965 ft | 425 kts | 272° |
| 2026-05-03 21:53 | 49.56309 | -120.33102 | 29677 ft | 423 kts | 272° |
| 2026-05-03 21:53 | 49.56234 | -120.37618 | 29406 ft | 421 kts | 272° |
| 2026-05-03 21:53 | 49.56158 | -120.42177 | 29121 ft | 419 kts | 272° |
| 2026-05-03 21:54 | 49.56083 | -120.46657 | 28848 ft | 417 kts | 272° |
| 2026-05-03 21:54 | 49.56006 | -120.51096 | 28578 ft | 415 kts | 271° |
| 2026-05-03 21:54 | 49.55927 | -120.55533 | 28305 ft | 413 kts | 271° |
| 2026-05-03 21:54 | 49.55845 | -120.59977 | 28023 ft | 413 kts | 271° |
| 2026-05-03 21:55 | 49.55763 | -120.64400 | 27749 ft | 412 kts | 271° |
| 2026-05-03 21:55 | 49.55678 | -120.68801 | 27484 ft | 410 kts | 271° |
| 2026-05-03 21:55 | 49.55591 | -120.73180 | 27212 ft | 408 kts | 271° |
| 2026-05-03 21:55 | 49.55504 | -120.77539 | 26971 ft | 406 kts | 271° |
| 2026-05-03 21:56 | 49.55416 | -120.81907 | 26704 ft | 405 kts | 271° |
| 2026-05-03 21:56 | 49.55325 | -120.86258 | 26449 ft | 403 kts | 271° |
| 2026-05-03 21:56 | 49.55234 | -120.90504 | 26197 ft | 401 kts | 271° |
| 2026-05-03 21:56 | 49.55140 | -120.94925 | 25933 ft | 400 kts | 271° |
| 2026-05-03 21:57 | 49.55050 | -120.99193 | 25688 ft | 398 kts | 271° |
| 2026-05-03 21:57 | 49.54960 | -121.03447 | 25439 ft | 398 kts | 270° |
| 2026-05-03 21:57 | 49.54863 | -121.07688 | 25173 ft | 396 kts | 270° |
| 2026-05-03 21:57 | 49.54762 | -121.11918 | 24910 ft | 391 kts | 270° |
| 2026-05-03 21:58 | 49.54659 | -121.16093 | 24490 ft | 387 kts | 270° |
| 2026-05-03 21:58 | 49.54558 | -121.20228 | 24042 ft | 384 kts | 270° |
| 2026-05-03 21:58 | 49.54461 | -121.24320 | 23608 ft | 381 kts | 270° |
| 2026-05-03 21:58 | 49.54367 | -121.28390 | 23112 ft | 378 kts | 270° |
| 2026-05-03 21:59 | 49.54245 | -121.32415 | 22670 ft | 377 kts | 269° |
| 2026-05-03 21:59 | 49.54126 | -121.36464 | 22070 ft | 377 kts | 270° |
| 2026-05-03 21:59 | 49.54030 | -121.40478 | 21630 ft | 373 kts | 270° |
| 2026-05-03 21:59 | 49.53969 | -121.43216 | 21327 ft | 370 kts | 270° |
| 2026-05-03 22:00 | 49.53883 | -121.47162 | 20881 ft | 368 kts | 270° |
| 2026-05-03 22:00 | 49.53793 | -121.51118 | 20427 ft | 365 kts | 270° |
| 2026-05-03 22:00 | 49.53696 | -121.55034 | 19981 ft | 363 kts | 270° |
| 2026-05-03 22:00 | 49.53594 | -121.58951 | 19523 ft | 361 kts | 270° |
| 2026-05-03 22:01 | 49.53492 | -121.62762 | 19095 ft | 359 kts | 269° |
| 2026-05-03 22:01 | 49.53385 | -121.66665 | 18649 ft | 358 kts | 269° |
| 2026-05-03 22:01 | 49.53274 | -121.70490 | 18210 ft | 357 kts | 269° |
| 2026-05-03 22:01 | 49.53164 | -121.74174 | 17764 ft | 354 kts | 269° |
| 2026-05-03 22:02 | 49.53045 | -121.78100 | 17318 ft | 351 kts | 269° |
| 2026-05-03 22:02 | 49.52934 | -121.81839 | 16907 ft | 347 kts | 269° |
| 2026-05-03 22:02 | 49.52827 | -121.85531 | 16499 ft | 344 kts | 269° |
| 2026-05-03 22:02 | 49.52720 | -121.89203 | 16088 ft | 342 kts | 269° |
| 2026-05-03 22:03 | 49.52610 | -121.92869 | 15666 ft | 340 kts | 269° |
| 2026-05-03 22:03 | 49.52500 | -121.96484 | 15275 ft | 337 kts | 269° |
| 2026-05-03 22:03 | 49.52390 | -122.00085 | 14875 ft | 336 kts | 268° |
| 2026-05-03 22:03 | 49.52047 | -122.03627 | 14477 ft | 335 kts | 256° |
| 2026-05-03 22:04 | 49.51215 | -122.06989 | 14085 ft | 336 kts | 243° |
| 2026-05-03 22:04 | 49.49992 | -122.10062 | 13959 ft | 339 kts | 239° |
| 2026-05-03 22:04 | 49.48715 | -122.13181 | 13975 ft | 340 kts | 239° |
| 2026-05-03 22:04 | 49.47468 | -122.16275 | 13975 ft | 340 kts | 239° |
| 2026-05-03 22:05 | 49.46233 | -122.19376 | 13974 ft | 340 kts | 240° |
| 2026-05-03 22:05 | 49.45016 | -122.22470 | 13969 ft | 332 kts | 240° |
| 2026-05-03 22:05 | 49.43833 | -122.25474 | 13835 ft | 313 kts | 240° |
| 2026-05-03 22:05 | 49.42730 | -122.28256 | 13706 ft | 298 kts | 240° |
| 2026-05-03 22:06 | 49.41673 | -122.30915 | 13272 ft | 288 kts | 240° |
| 2026-05-03 22:06 | 49.40633 | -122.33535 | 12560 ft | 285 kts | 239° |
| 2026-05-03 22:06 | 49.39456 | -122.35989 | 11853 ft | 283 kts | 229° |
| 2026-05-03 22:06 | 49.38155 | -122.38248 | 11262 ft | 282 kts | 230° |
| 2026-05-03 22:07 | 49.36842 | -122.40523 | 10815 ft | 280 kts | 229° |
| 2026-05-03 22:07 | 49.35557 | -122.42745 | 10162 ft | 277 kts | 229° |
| 2026-05-03 22:07 | 49.34275 | -122.44956 | 9470 ft | 277 kts | 229° |
| 2026-05-03 22:07 | 49.32981 | -122.47186 | 9069 ft | 273 kts | 229° |
| 2026-05-03 22:08 | 49.31735 | -122.49315 | 8970 ft | 274 kts | 228° |
| 2026-05-03 22:08 | 49.30431 | -122.51521 | 8989 ft | 275 kts | 228° |
| 2026-05-03 22:08 | 49.29189 | -122.53618 | 8605 ft | 270 kts | 228° |
| 2026-05-03 22:08 | 49.27905 | -122.55786 | 7907 ft | 270 kts | 228° |
| 2026-05-03 22:09 | 49.26645 | -122.57930 | 7272 ft | 266 kts | 228° |
| 2026-05-03 22:09 | 49.25432 | -122.59995 | 6662 ft | 263 kts | 228° |
| 2026-05-03 22:09 | 49.24225 | -122.62057 | 6237 ft | 250 kts | 228° |
| 2026-05-03 22:10 | 49.21986 | -122.65878 | 5310 ft | 233 kts | 227° |
| 2026-05-03 22:10 | 49.20932 | -122.67713 | 4996 ft | 226 kts | 232° |
| 2026-05-03 22:10 | 49.20105 | -122.69748 | 4892 ft | 222 kts | 239° |
| 2026-05-03 22:10 | 49.19337 | -122.71784 | 4606 ft | 218 kts | 240° |
| 2026-05-03 22:11 | 49.18581 | -122.73766 | 4285 ft | 206 kts | 239° |
| 2026-05-03 22:11 | 49.17889 | -122.75573 | 3973 ft | 193 kts | 240° |
| 2026-05-03 22:11 | 49.17414 | -122.76810 | 3635 ft | 191 kts | 239° |
| 2026-05-03 22:11 | 49.16698 | -122.78681 | 3153 ft | 189 kts | 240° |
| 2026-05-03 22:12 | 49.16227 | -122.80575 | 3004 ft | 187 kts | 259° |
| 2026-05-03 22:12 | 49.16190 | -122.82715 | 2999 ft | 187 kts | 278° |
| 2026-05-03 22:12 | 49.16427 | -122.84749 | 2989 ft | 187 kts | 280° |
| 2026-05-03 22:12 | 49.16646 | -122.86610 | 2980 ft | 177 kts | 279° |
| 2026-05-03 22:13 | 49.16858 | -122.88418 | 2983 ft | 166 kts | 280° |
| 2026-05-03 22:13 | 49.17060 | -122.90144 | 2988 ft | 165 kts | 280° |
| 2026-05-03 22:13 | 49.17263 | -122.91884 | 2981 ft | 167 kts | 280° |
| 2026-05-03 22:13 | 49.17467 | -122.93632 | 2841 ft | 166 kts | 280° |
| 2026-05-03 22:14 | 49.17670 | -122.95374 | 2667 ft | 166 kts | 279° |
| 2026-05-03 22:14 | 49.17873 | -122.97116 | 2462 ft | 166 kts | 280° |
| 2026-05-03 22:14 | 49.18075 | -122.98856 | 2238 ft | 166 kts | 279° |
| 2026-05-03 22:14 | 49.18277 | -123.00598 | 2036 ft | 163 kts | 280° |
| 2026-05-03 22:15 | 49.18471 | -123.02272 | 1829 ft | 155 kts | 279° |
| 2026-05-03 22:15 | 49.18653 | -123.03843 | 1622 ft | 146 kts | 278° |
| 2026-05-03 22:15 | 49.18828 | -123.05356 | 1429 ft | 142 kts | 279° |
| 2026-05-03 22:15 | 49.18998 | -123.06831 | 1253 ft | 139 kts | 278° |
| 2026-05-03 22:16 | 49.19166 | -123.08287 | 1052 ft | 139 kts | 278° |
| 2026-05-03 22:16 | 49.19334 | -123.09745 | 872 ft | 137 kts | 279° |
| 2026-05-03 22:16 | 49.19503 | -123.11214 | 676 ft | 137 kts | 281° |
| 2026-05-03 22:16 | 49.19667 | -123.12637 | 504 ft | 137 kts | 281° |
| 2026-05-03 22:17 | 49.19781 | -123.13607 | 371 ft | 136 kts | 280° |
| 2026-05-03 22:17 | 49.19983 | -123.15400 | 140 ft | 133 kts | 281° |
| 2026-05-03 22:17 | 49.20090 | -123.16318 | 44 ft | 132 kts | 281° |
| 2026-05-03 22:17 | 49.20263 | -123.17833 | 7 ft | 83 kts | 279° |
| 2026-05-03 22:18 | 49.20331 | -123.18433 | 11 ft | 33 kts | 279° |
| 2026-05-03 22:18 | 49.20372 | -123.18791 | 11 ft | 38 kts | 279° |
| 2026-05-03 22:18 | 49.20395 | -123.19139 | 8 ft | 22 kts | 265° |
| 2026-05-03 22:18 | 49.20353 | -123.19360 | 9 ft | 10 kts | 250° |
| 2026-05-03 22:19 | 49.20342 | -123.19410 | 9 ft | 5 kts | 250° |
| 2026-05-03 22:19 | 49.20322 | -123.19492 | 9 ft | 7 kts | 248° |
| 2026-05-03 22:19 | 49.20320 | -123.19499 | 9 ft | 0 kts | 248° |
| 2026-05-03 22:21 | 49.20320 | -123.19501 | 9 ft | 2 kts | 248° |
| 2026-05-03 22:21 | 49.20288 | -123.19598 | 9 ft | 12 kts | 221° |
| 2026-05-03 22:22 | 49.20250 | -123.19569 | 10 ft | 5 kts | 117° |
| 2026-05-03 22:22 | 49.20241 | -123.19526 | 9 ft | 6 kts | 103° |
| 2026-05-03 22:22 | 49.20228 | -123.19416 | 9 ft | 11 kts | 99° |
| 2026-05-03 22:22 | 49.20213 | -123.19284 | 11 ft | 16 kts | 101° |
| 2026-05-03 22:23 | 49.20194 | -123.19129 | 9 ft | 13 kts | 99° |
| 2026-05-03 22:23 | 49.20153 | -123.19029 | 11 ft | 10 kts | 159° |
| 2026-05-03 22:23 | 49.20096 | -123.19037 | 10 ft | 8 kts | 189° |
| 2026-05-03 22:23 | 49.20040 | -123.19053 | 10 ft | 12 kts | 190° |
| 2026-05-03 22:24 | 49.19923 | -123.19087 | 11 ft | 19 kts | 190° |
| 2026-05-03 22:24 | 49.19824 | -123.19111 | 10 ft | 6 kts | 186° |
| 2026-05-03 22:24 | 49.19818 | -123.19112 | 10 ft | 0 kts | 185° |
| 2026-05-03 22:24 | 49.19797 | -123.19070 | 10 ft | 12 kts | 121° |
| 2026-05-03 22:25 | 49.19777 | -123.18936 | 10 ft | 12 kts | 99° |